createdAt,value
2022-07-30T00:02:11.459Z,22.70
2022-07-30T00:04:41.040Z,22.70
2022-07-30T00:07:09.205Z,22.70
2022-07-30T00:09:37.303Z,22.70
2022-07-30T00:12:05.848Z,22.70
2022-07-30T00:14:34.949Z,22.70
2022-07-30T00:17:04.131Z,22.60
2022-07-30T00:19:32.589Z,22.60
2022-07-30T00:22:02.117Z,22.60
2022-07-30T00:24:30.427Z,22.50
2022-07-30T00:26:58.869Z,22.50
2022-07-30T00:29:27.473Z,22.50
2022-07-30T00:31:55.570Z,22.50
2022-07-30T00:34:23.668Z,22.50
2022-07-30T00:36:51.805Z,22.40
2022-07-30T00:39:21.324Z,22.40
2022-07-30T00:41:58.086Z,22.40
2022-07-30T00:44:26.272Z,22.40
2022-07-30T00:46:54.911Z,22.40
2022-07-30T00:49:23.762Z,22.30
2022-07-30T00:51:52.033Z,22.30
2022-07-30T00:54:22.331Z,22.30
2022-07-30T00:56:50.991Z,22.30
2022-07-30T00:59:19.214Z,22.30
2022-07-30T01:01:47.516Z,22.30
2022-07-30T01:04:15.728Z,22.30
2022-07-30T01:06:43.850Z,22.20
2022-07-30T01:09:12.254Z,22.20
2022-07-30T01:11:43.499Z,22.20
2022-07-30T01:14:12.304Z,22.20
2022-07-30T01:16:42.849Z,22.20
2022-07-30T01:19:33.336Z,22.10
2022-07-30T01:22:10.188Z,22.10
2022-07-30T01:24:42.835Z,22.00
2022-07-30T01:27:18.005Z,22.00
2022-07-30T01:29:49.213Z,22.00
2022-07-30T01:32:18.919Z,22.00
2022-07-30T01:34:48.124Z,22.00
2022-07-30T01:37:17.826Z,21.90
2022-07-30T01:39:50.825Z,21.90
2022-07-30T01:42:22.076Z,21.80
2022-07-30T01:44:51.193Z,21.80
2022-07-30T01:47:21.026Z,21.80
2022-07-30T01:49:52.816Z,21.80
2022-07-30T01:52:21.880Z,21.70
2022-07-30T01:54:53.505Z,21.70
2022-07-30T01:57:24.281Z,21.70
2022-07-30T01:59:56.005Z,21.60
2022-07-30T02:02:24.268Z,21.60
2022-07-30T02:04:52.469Z,21.50
2022-07-30T02:07:24.974Z,21.50
2022-07-30T02:09:57.345Z,21.40
2022-07-30T02:12:31.588Z,21.40
2022-07-30T02:15:10.216Z,21.40
2022-07-30T02:17:44.918Z,21.40
2022-07-30T02:20:15.608Z,21.40
2022-07-30T02:22:46.430Z,21.40
2022-07-30T02:25:19.730Z,21.30
2022-07-30T02:27:53.899Z,21.30
2022-07-30T02:30:26.996Z,21.40
2022-07-30T02:33:00.473Z,21.40
2022-07-30T02:35:32.759Z,21.40
2022-07-30T02:38:03.124Z,21.40
2022-07-30T02:40:31.635Z,21.40
2022-07-30T02:43:02.364Z,21.30
2022-07-30T02:45:31.547Z,21.30
2022-07-30T02:48:02.362Z,21.30
2022-07-30T02:50:32.072Z,21.30
2022-07-30T02:53:01.888Z,21.30
2022-07-30T02:55:33.585Z,21.30
2022-07-30T02:58:05.136Z,21.20
2022-07-30T03:00:34.798Z,21.20
2022-07-30T03:03:06.000Z,21.30
2022-07-30T03:05:35.817Z,21.30
2022-07-30T03:08:04.423Z,21.20
2022-07-30T03:10:33.771Z,21.20
2022-07-30T03:13:05.531Z,21.20
2022-07-30T03:15:39.399Z,21.20
2022-07-30T03:18:11.421Z,21.20
2022-07-30T03:20:40.608Z,21.20
2022-07-30T03:23:10.055Z,21.20
2022-07-30T03:25:38.669Z,21.20
2022-07-30T03:28:09.291Z,21.20
2022-07-30T03:30:37.841Z,21.30
2022-07-30T03:33:07.488Z,21.30
2022-07-30T03:35:36.514Z,21.20
2022-07-30T03:38:06.820Z,21.30
2022-07-30T03:40:35.994Z,21.20
2022-07-30T03:43:04.745Z,21.20
2022-07-30T03:45:49.955Z,21.30
2022-07-30T03:48:18.247Z,21.30
2022-07-30T03:50:47.629Z,21.30
2022-07-30T03:53:16.733Z,21.30
2022-07-30T03:55:45.264Z,21.30
2022-07-30T03:58:13.405Z,21.30
2022-07-30T04:00:41.919Z,21.30
2022-07-30T04:03:12.377Z,21.30
2022-07-30T04:05:41.350Z,21.30
2022-07-30T04:08:09.880Z,21.20
2022-07-30T04:10:38.122Z,21.20
2022-07-30T04:13:09.430Z,21.20
2022-07-30T04:16:36.960Z,21.20
2022-07-30T04:18:41.403Z,21.20
2022-07-30T04:21:16.079Z,21.20
2022-07-30T04:24:01.609Z,21.20
2022-07-30T04:26:34.470Z,21.20
2022-07-30T04:29:05.419Z,21.20
2022-07-30T04:31:40.690Z,21.30
2022-07-30T04:34:14.361Z,21.40
2022-07-30T04:36:43.737Z,21.50
2022-07-30T04:39:12.155Z,21.50
2022-07-30T04:41:48.618Z,21.60
2022-07-30T04:44:18.851Z,21.70
2022-07-30T04:46:47.192Z,21.70
2022-07-30T04:49:18.936Z,21.70
2022-07-30T04:51:47.746Z,21.70
2022-07-30T04:54:17.147Z,21.80
2022-07-30T04:56:52.522Z,21.80
2022-07-30T04:59:29.580Z,21.80
2022-07-30T05:02:00.039Z,21.80
2022-07-30T05:04:31.812Z,21.90
2022-07-30T05:07:01.400Z,21.90
2022-07-30T05:09:31.027Z,21.80
2022-07-30T05:11:59.616Z,21.80
2022-07-30T05:14:28.637Z,21.80
2022-07-30T05:16:56.987Z,21.90
2022-07-30T05:19:25.257Z,21.90
2022-07-30T05:21:55.055Z,22.00
2022-07-30T05:24:23.229Z,21.90
2022-07-30T05:26:51.479Z,21.90
2022-07-30T05:29:20.385Z,22.00
2022-07-30T05:31:49.305Z,22.00
2022-07-30T05:34:17.821Z,22.00
2022-07-30T05:36:46.232Z,22.10
2022-07-30T05:39:16.873Z,22.10
2022-07-30T05:41:44.974Z,22.10
2022-07-30T05:44:13.068Z,22.20
2022-07-30T05:46:41.682Z,22.20
2022-07-30T05:49:10.022Z,22.20
2022-07-30T05:51:38.214Z,22.20
2022-07-30T05:54:06.696Z,22.20
2022-07-30T05:56:36.351Z,22.30
2022-07-30T05:59:04.592Z,22.30
2022-07-30T06:01:32.770Z,22.40
2022-07-30T06:04:01.065Z,22.40
2022-07-30T06:06:29.246Z,22.40
2022-07-30T06:08:57.366Z,22.40
2022-07-30T06:11:25.466Z,22.40
2022-07-30T06:13:55.004Z,22.40
2022-07-30T06:16:23.279Z,22.40
2022-07-30T06:18:51.403Z,22.40
2022-07-30T06:21:19.485Z,22.40
2022-07-30T06:23:47.645Z,22.50
2022-07-30T06:26:15.762Z,22.50
2022-07-30T06:28:43.902Z,22.50
2022-07-30T06:31:13.567Z,22.50
2022-07-30T06:33:41.671Z,22.40
2022-07-30T06:36:14.021Z,22.40
2022-07-30T06:38:42.688Z,22.50
2022-07-30T06:41:11.275Z,22.50
2022-07-30T06:43:39.626Z,22.50
2022-07-30T06:46:08.090Z,22.50
2022-07-30T06:48:38.102Z,22.50
2022-07-30T06:51:06.249Z,22.50
2022-07-30T06:53:42.407Z,22.50
2022-07-30T06:56:11.121Z,22.50
2022-07-30T06:58:39.306Z,22.50
2022-07-30T07:01:11.341Z,22.60
2022-07-30T07:03:41.205Z,22.60
2022-07-30T07:06:09.910Z,22.70
2022-07-30T07:08:38.728Z,22.70
2022-07-30T07:11:06.938Z,22.90
2022-07-30T07:13:35.078Z,22.90
2022-07-30T07:16:03.237Z,23.00
2022-07-30T07:18:31.360Z,23.10
2022-07-30T07:21:00.896Z,23.20
2022-07-30T07:23:41.373Z,23.30
2022-07-30T07:26:11.440Z,23.40
2022-07-30T07:28:40.181Z,23.30
2022-07-30T07:31:08.501Z,23.30
2022-07-30T07:33:36.727Z,23.30
2022-07-30T07:36:06.844Z,23.30
2022-07-30T07:38:35.117Z,23.30
2022-07-30T07:41:03.424Z,23.30
2022-07-30T07:43:31.514Z,23.40
2022-07-30T07:46:00.441Z,23.40
2022-07-30T07:48:28.580Z,23.50
2022-07-30T07:51:00.060Z,23.60
2022-07-30T07:53:29.982Z,23.60
2022-07-30T07:55:58.768Z,23.80
2022-07-30T07:58:28.066Z,23.90
2022-07-30T08:00:57.716Z,24.00
2022-07-30T08:03:25.847Z,24.20
2022-07-30T08:06:05.543Z,24.30
2022-07-30T08:08:37.207Z,24.40
2022-07-30T08:11:07.100Z,24.50
2022-07-30T08:13:51.704Z,24.60
2022-07-30T08:16:21.277Z,24.60
2022-07-30T08:18:49.925Z,24.60
2022-07-30T08:21:18.081Z,24.60
2022-07-30T08:23:47.648Z,24.70
2022-07-30T08:26:15.761Z,24.70
2022-07-30T08:28:45.734Z,24.80
2022-07-30T08:31:13.992Z,24.90
2022-07-30T08:33:42.079Z,25.00
2022-07-30T08:36:10.466Z,25.00
2022-07-30T08:38:39.467Z,25.00
2022-07-30T08:41:09.277Z,25.00
2022-07-30T08:43:38.411Z,25.10
2022-07-30T08:46:10.514Z,25.10
2022-07-30T08:48:39.029Z,25.20
2022-07-30T08:51:07.986Z,25.40
2022-07-30T08:53:36.729Z,25.50
2022-07-30T08:56:06.157Z,25.50
2022-07-30T08:58:36.190Z,25.50
2022-07-30T09:01:06.142Z,25.60
2022-07-30T09:03:34.970Z,25.70
2022-07-30T09:06:04.696Z,25.80
2022-07-30T09:08:33.722Z,25.80
2022-07-30T09:11:01.964Z,25.90
2022-07-30T09:13:34.562Z,26.00
2022-07-30T09:16:05.416Z,26.10
2022-07-30T09:18:35.624Z,26.20
2022-07-30T09:21:16.445Z,26.30
2022-07-30T09:23:57.764Z,26.30
2022-07-30T09:26:26.139Z,26.20
2022-07-30T09:28:55.108Z,26.20
2022-07-30T09:31:24.924Z,26.30
2022-07-30T09:33:53.015Z,26.30
2022-07-30T09:36:21.113Z,26.30
2022-07-30T09:38:51.632Z,26.40
2022-07-30T09:41:41.536Z,26.50
2022-07-30T09:44:09.720Z,26.60
2022-07-30T09:46:47.719Z,26.70
2022-07-30T09:49:17.135Z,26.70
2022-07-30T09:51:54.413Z,26.80
2022-07-30T09:54:25.333Z,26.80
2022-07-30T09:57:22.709Z,26.60
2022-07-30T09:59:56.657Z,26.60
2022-07-30T10:02:33.083Z,26.50
2022-07-30T10:05:16.212Z,26.60
2022-07-30T10:07:52.646Z,26.60
2022-07-30T10:10:25.596Z,26.60
2022-07-30T10:12:58.757Z,26.70
2022-07-30T10:15:32.370Z,26.70
2022-07-30T10:18:03.026Z,26.70
2022-07-30T10:20:35.428Z,26.70
2022-07-30T10:23:08.781Z,26.60
2022-07-30T10:25:49.024Z,26.60
2022-07-30T10:28:24.187Z,26.60
2022-07-30T10:30:53.327Z,26.60
2022-07-30T10:33:34.522Z,26.60
2022-07-30T10:36:05.244Z,26.80
2022-07-30T10:38:39.171Z,26.90
2022-07-30T10:41:42.132Z,26.90
2022-07-30T10:44:31.530Z,27.10
2022-07-30T10:47:07.890Z,27.20
2022-07-30T10:49:41.366Z,27.30
2022-07-30T10:52:12.106Z,27.30
2022-07-30T10:54:44.494Z,27.30
2022-07-30T10:57:26.587Z,27.40
2022-07-30T11:00:13.550Z,27.50
2022-07-30T11:03:15.890Z,27.50
2022-07-30T11:05:46.853Z,27.40
2022-07-30T11:08:36.145Z,27.40
2022-07-30T11:11:19.420Z,27.40
2022-07-30T11:13:54.640Z,27.40
2022-07-30T11:16:24.335Z,27.40
2022-07-30T11:19:55.905Z,27.40
2022-07-30T11:22:24.900Z,27.30
2022-07-30T11:24:53.681Z,27.30
2022-07-30T11:27:41.996Z,27.30
2022-07-30T11:30:35.093Z,27.50
2022-07-30T11:33:32.934Z,27.60
2022-07-30T11:36:10.670Z,27.70
2022-07-30T11:39:05.412Z,27.70
2022-07-30T11:41:35.524Z,27.50
2022-07-30T11:44:26.723Z,27.40
2022-07-30T11:46:55.144Z,27.40
2022-07-30T11:49:23.283Z,27.40
2022-07-30T11:51:52.108Z,27.40
2022-07-30T11:54:21.659Z,27.40
2022-07-30T11:56:51.664Z,27.40
2022-07-30T11:59:20.042Z,27.50
2022-07-30T12:01:51.789Z,27.70
2022-07-30T12:04:20.742Z,27.80
2022-07-30T12:06:49.990Z,27.80
2022-07-30T12:09:28.876Z,27.80
2022-07-30T12:11:57.779Z,27.90
2022-07-30T12:14:26.381Z,27.80
2022-07-30T12:16:55.672Z,27.80
2022-07-30T12:19:23.781Z,27.70
2022-07-30T12:21:53.576Z,27.80
2022-07-30T12:24:27.648Z,27.80
2022-07-30T12:27:06.596Z,27.80
2022-07-30T12:29:35.748Z,27.70
2022-07-30T12:32:04.588Z,27.80
2022-07-30T12:34:33.834Z,27.80
2022-07-30T12:37:10.170Z,28.00
2022-07-30T12:39:40.545Z,28.10
2022-07-30T12:42:09.174Z,28.10
2022-07-30T12:44:39.529Z,28.20
2022-07-30T12:47:20.200Z,28.30
2022-07-30T12:49:50.042Z,28.30
2022-07-30T12:52:27.569Z,28.20
2022-07-30T12:55:08.755Z,28.20
2022-07-30T12:57:56.713Z,28.30
2022-07-30T13:00:26.747Z,28.40
2022-07-30T13:02:56.271Z,28.40
2022-07-30T13:05:48.754Z,28.40
2022-07-30T13:08:17.376Z,28.40
2022-07-30T13:11:01.671Z,28.50
2022-07-30T13:13:31.020Z,28.40
2022-07-30T13:16:01.321Z,28.40
2022-07-30T13:18:29.773Z,28.40
2022-07-30T13:20:57.991Z,28.50
2022-07-30T13:23:26.685Z,28.50
2022-07-30T13:25:55.060Z,28.60
2022-07-30T13:28:26.095Z,28.70
2022-07-30T13:30:54.171Z,28.60
2022-07-30T13:33:22.446Z,28.40
2022-07-30T13:35:50.574Z,28.30
2022-07-30T13:38:18.759Z,28.20
2022-07-30T13:40:46.933Z,28.20
2022-07-30T13:43:15.216Z,28.20
2022-07-30T13:45:44.731Z,28.20
2022-07-30T13:48:12.867Z,28.30
2022-07-30T13:50:41.289Z,28.40
2022-07-30T13:53:10.202Z,28.60
2022-07-30T13:55:39.375Z,28.70
2022-07-30T13:58:07.914Z,28.70
2022-07-30T14:00:37.401Z,28.80
2022-07-30T14:03:08.231Z,28.90
2022-07-30T14:05:42.358Z,29.10
2022-07-30T14:08:12.035Z,29.20
2022-07-30T14:10:41.015Z,29.20
2022-07-30T14:13:19.181Z,29.10
2022-07-30T14:15:49.759Z,28.90
2022-07-30T14:18:19.345Z,28.80
2022-07-30T14:20:49.414Z,28.80
2022-07-30T14:23:17.719Z,28.90
2022-07-30T14:25:46.048Z,28.90
2022-07-30T14:28:14.500Z,28.80
2022-07-30T14:30:42.805Z,28.80
2022-07-30T14:33:11.104Z,28.80
2022-07-30T14:35:40.602Z,28.80
2022-07-30T14:38:08.763Z,28.70
2022-07-30T14:40:36.882Z,28.70
2022-07-30T14:43:05.867Z,28.60
2022-07-30T14:45:36.599Z,28.60
2022-07-30T14:48:05.368Z,28.60
2022-07-30T14:50:39.331Z,28.60
2022-07-30T14:53:21.837Z,28.60
2022-07-30T14:55:50.914Z,28.50
2022-07-30T14:58:19.060Z,28.50
2022-07-30T15:00:48.804Z,28.50
2022-07-30T15:03:17.500Z,28.50
2022-07-30T15:05:49.084Z,28.40
2022-07-30T15:08:21.809Z,28.40
2022-07-30T15:10:49.932Z,28.30
2022-07-30T15:13:18.117Z,28.20
2022-07-30T15:15:47.735Z,28.20
2022-07-30T15:18:16.091Z,28.20
2022-07-30T15:20:44.236Z,28.20
2022-07-30T15:23:13.608Z,28.20
2022-07-30T15:25:44.024Z,28.40
2022-07-30T15:28:12.306Z,28.60
2022-07-30T15:30:41.309Z,28.90
2022-07-30T15:33:09.653Z,29.10
2022-07-30T15:35:38.358Z,29.20
2022-07-30T15:38:06.488Z,29.30
2022-07-30T15:40:34.827Z,29.50
2022-07-30T15:43:08.567Z,29.70
2022-07-30T15:45:55.281Z,29.80
2022-07-30T15:48:24.978Z,29.80
2022-07-30T15:51:00.698Z,29.70
2022-07-30T15:53:29.845Z,29.70
2022-07-30T15:55:58.369Z,29.90
2022-07-30T15:58:28.161Z,30.10
2022-07-30T16:00:56.344Z,30.20
2022-07-30T16:03:24.592Z,30.30
2022-07-30T16:05:53.079Z,30.40
2022-07-30T16:08:21.500Z,30.40
2022-07-30T16:10:49.848Z,30.40
2022-07-30T16:13:18.111Z,30.40
2022-07-30T16:15:47.644Z,30.40
2022-07-30T16:18:15.761Z,30.40
2022-07-30T16:20:43.844Z,30.50
2022-07-30T16:23:14.933Z,30.50
2022-07-30T16:25:45.158Z,30.80
2022-07-30T16:28:13.239Z,31.00
2022-07-30T16:30:51.230Z,31.10
2022-07-30T16:33:21.589Z,31.00
2022-07-30T16:35:51.007Z,31.00
2022-07-30T16:38:20.250Z,30.90
2022-07-30T16:40:48.698Z,31.00
2022-07-30T16:43:19.845Z,31.00
2022-07-30T16:45:48.270Z,31.10
2022-07-30T16:48:16.677Z,31.30
2022-07-30T16:50:46.368Z,31.40
2022-07-30T16:53:14.933Z,31.40
2022-07-30T16:55:43.352Z,31.40
2022-07-30T16:58:11.655Z,31.50
2022-07-30T17:00:40.831Z,31.60
2022-07-30T17:03:09.291Z,31.60
2022-07-30T17:05:45.259Z,31.50
2022-07-30T17:08:15.328Z,31.50
2022-07-30T17:10:46.471Z,31.50
2022-07-30T17:13:18.311Z,31.40
2022-07-30T17:15:46.936Z,31.50
2022-07-30T17:18:15.392Z,31.50
2022-07-30T17:20:44.149Z,31.50
2022-07-30T17:23:12.387Z,31.40
2022-07-30T17:25:42.057Z,31.20
2022-07-30T17:28:10.260Z,31.10
2022-07-30T17:30:38.432Z,30.90
2022-07-30T17:33:06.622Z,30.80
2022-07-30T17:35:35.051Z,30.70
2022-07-30T17:38:03.213Z,30.70
2022-07-30T17:40:32.109Z,30.80
2022-07-30T17:43:04.660Z,30.90
2022-07-30T17:45:34.374Z,30.90
2022-07-30T17:48:02.839Z,30.80
2022-07-30T17:50:32.331Z,30.60
2022-07-30T17:53:00.676Z,30.40
2022-07-30T17:55:35.012Z,30.30
2022-07-30T17:58:05.299Z,30.10
2022-07-30T18:00:34.795Z,30.00
2022-07-30T18:03:03.530Z,29.80
2022-07-30T18:05:31.686Z,29.70
2022-07-30T18:07:59.854Z,29.50
2022-07-30T18:10:27.969Z,29.40
2022-07-30T18:12:56.260Z,29.20
2022-07-30T18:15:25.940Z,29.10
2022-07-30T18:17:54.568Z,29.00
2022-07-30T18:20:22.847Z,29.00
2022-07-30T18:22:51.481Z,29.00
2022-07-30T18:25:20.054Z,28.90
2022-07-30T18:27:48.600Z,28.80
2022-07-30T18:30:16.770Z,28.60
2022-07-30T18:32:46.785Z,28.40
2022-07-30T18:35:15.525Z,28.30
2022-07-30T18:37:43.788Z,28.20
2022-07-30T18:40:13.489Z,28.10
2022-07-30T18:42:42.076Z,28.10
2022-07-30T18:45:13.889Z,28.00
2022-07-30T18:47:42.745Z,27.90
2022-07-30T18:50:13.398Z,27.70
2022-07-30T18:52:42.328Z,27.60
2022-07-30T18:55:12.554Z,27.60
2022-07-30T18:57:41.782Z,27.40
2022-07-30T19:00:35.282Z,27.40
2022-07-30T19:03:02.688Z,27.30
2022-07-30T19:05:32.433Z,27.20
2022-07-30T19:08:00.572Z,27.10
2022-07-30T19:10:28.884Z,27.00
2022-07-30T19:12:57.303Z,26.90
2022-07-30T19:15:25.705Z,26.80
2022-07-30T19:17:53.856Z,26.80
2022-07-30T19:20:23.417Z,26.70
2022-07-30T19:23:00.663Z,26.60
2022-07-30T19:25:29.290Z,26.50
2022-07-30T19:27:57.585Z,26.50
2022-07-30T19:30:25.913Z,26.40
2022-07-30T19:32:54.133Z,26.40
2022-07-30T19:35:22.410Z,26.30
2022-07-30T19:37:51.898Z,26.20
2022-07-30T19:40:20.240Z,26.20
2022-07-30T19:42:48.384Z,26.20
2022-07-30T19:45:21.775Z,26.10
2022-07-30T19:47:50.449Z,26.00
2022-07-30T19:50:18.571Z,26.00
2022-07-30T19:52:51.493Z,26.00
2022-07-30T19:55:35.136Z,26.00
2022-07-30T19:58:04.642Z,26.00
2022-07-30T20:00:49.402Z,26.00
2022-07-30T20:06:08.411Z,26.00
2022-07-30T20:08:44.819Z,26.00
2022-07-30T20:11:20.930Z,26.00
2022-07-30T20:14:02.767Z,25.90
2022-07-30T20:16:30.976Z,25.90
2022-07-30T20:18:59.293Z,25.80
2022-07-30T20:21:56.066Z,25.80
2022-07-30T20:24:17.721Z,25.80
2022-07-30T20:26:47.281Z,25.80
2022-07-30T20:29:19.392Z,25.70
2022-07-30T20:31:49.778Z,25.60
2022-07-30T20:34:23.377Z,25.60
2022-07-30T20:36:52.435Z,25.60
2022-07-30T20:39:22.154Z,25.50
2022-07-30T20:42:07.573Z,25.50
2022-07-30T20:44:36.981Z,25.40
2022-07-30T20:47:08.355Z,25.30
2022-07-30T20:49:37.256Z,25.30
2022-07-30T20:52:06.747Z,25.20
2022-07-30T20:54:35.145Z,25.20
2022-07-30T20:57:06.401Z,25.10
2022-07-30T20:59:35.605Z,25.00
2022-07-30T21:02:06.449Z,25.00
2022-07-30T21:04:39.033Z,24.90
2022-07-30T21:07:08.612Z,24.80
2022-07-30T21:09:49.955Z,24.80
2022-07-30T21:12:32.595Z,24.80
2022-07-30T21:15:01.575Z,24.70
2022-07-30T21:17:29.771Z,24.60
2022-07-30T21:19:58.465Z,24.60
2022-07-30T21:22:26.595Z,24.50
2022-07-30T21:24:54.696Z,24.50
2022-07-30T21:27:24.327Z,24.40
2022-07-30T21:29:58.147Z,24.30
2022-07-30T21:32:26.788Z,24.30
2022-07-30T21:34:54.974Z,24.30
2022-07-30T21:37:23.136Z,24.20
2022-07-30T21:40:05.851Z,24.20
2022-07-30T21:42:35.600Z,24.20
2022-07-30T21:45:03.786Z,24.10
2022-07-30T21:47:31.969Z,24.10
2022-07-30T21:50:00.232Z,24.00
2022-07-30T21:52:29.415Z,24.00
2022-07-30T21:54:58.532Z,24.00
2022-07-30T21:57:32.509Z,23.90
2022-07-30T22:00:08.198Z,23.90
2022-07-30T22:02:37.837Z,23.90
2022-07-30T22:05:21.826Z,23.80
2022-07-30T22:07:51.992Z,23.80
2022-07-30T22:10:21.491Z,23.70
2022-07-30T22:12:50.143Z,23.70
2022-07-30T22:15:20.658Z,23.60
2022-07-30T22:17:58.413Z,23.60
2022-07-30T22:20:29.845Z,23.60
2022-07-30T22:23:00.564Z,23.50
2022-07-30T22:25:41.703Z,23.50
2022-07-30T22:28:12.355Z,23.40
2022-07-30T22:30:43.451Z,23.40
2022-07-30T22:33:13.938Z,23.40
2022-07-30T22:35:46.710Z,23.30
2022-07-30T22:38:19.564Z,23.30
2022-07-30T22:40:47.945Z,23.20
2022-07-30T22:43:17.657Z,23.10
2022-07-30T22:45:48.764Z,23.10
2022-07-30T22:48:19.682Z,23.10
2022-07-30T22:50:53.451Z,23.10
2022-07-30T22:54:10.708Z,23.00
2022-07-30T22:58:57.957Z,23.00
2022-07-30T23:01:28.132Z,23.00
2022-07-30T23:03:56.236Z,23.00
2022-07-30T23:06:24.424Z,23.00
2022-07-30T23:08:52.509Z,23.00
2022-07-30T23:11:21.190Z,23.00
2022-07-30T23:12:16.479Z,25.90
2022-07-30T23:12:34.370Z,23.00
2022-07-30T23:13:53.769Z,23.00
2022-07-30T23:16:22.116Z,23.00
2022-07-30T23:18:51.694Z,23.00
2022-07-30T23:21:19.877Z,22.90
2022-07-30T23:23:48.273Z,22.90
2022-07-30T23:26:16.406Z,22.80
2022-07-30T23:28:44.508Z,22.80
2022-07-30T23:31:12.592Z,22.80
2022-07-30T23:33:41.889Z,22.70
2022-07-30T23:36:11.697Z,22.70
2022-07-30T23:38:39.833Z,22.70
2022-07-30T23:41:07.984Z,22.60
2022-07-30T23:43:36.209Z,22.60
2022-07-30T23:46:05.130Z,22.50
2022-07-30T23:48:39.022Z,22.50
2022-07-30T23:51:07.204Z,22.50
2022-07-30T23:53:36.781Z,22.40
2022-07-30T23:56:05.413Z,22.40
2022-07-30T23:58:34.282Z,22.40
